Time;durP1;ratioP1;P1;durP2;ratioP2;P2;SDS_P1;SDS_P2;PMS_P1;PMS_P2;Temp;Humidity;BMP_temperature;BMP_pressure;BME280_temperature;BME280_humidity;BME280_pressure;Samples;Min_cycle;Max_cycle;Signal;HPM_P1;HPM_P2
2022/11/14 00:01:39;;;;;;;74.03;18.63;;;;;;;;;;10280644;28;20053;-59
2022/11/14 00:06:56;;;;;;;57.00;17.75;;;;;;;;;;10279192;28;20072;-58
2022/11/14 00:12:14;;;;;;;49.83;21.17;;;;;;;;;;10279161;28;20041;-59
2022/11/14 00:17:31;;;;;;;48.00;17.45;;;;;;;;;;10278960;28;20080;-59
2022/11/14 00:22:48;;;;;;;44.83;18.42;;;;;;;;;;10246805;28;20041;-59
2022/11/14 00:28:06;;;;;;;21.40;14.93;;;;;;;;;;10246021;28;20081;-58
2022/11/14 00:33:22;;;;;;;33.17;24.05;;;;;;;;;;10253245;28;20065;-57
2022/11/14 00:38:39;;;;;;;29.27;22.95;;;;;;;;;;10239576;28;20049;-57
2022/11/14 00:43:58;;;;;;;32.13;24.83;;;;;;;;;;10273010;28;20067;-59
2022/11/14 00:49:15;;;;;;;90.57;28.70;;;;;;;;;;10276431;28;20141;-59
2022/11/14 00:54:32;;;;;;;69.90;27.52;;;;;;;;;;10281171;28;20081;-60
2022/11/14 00:59:50;;;;;;;51.17;28.15;;;;;;;;;;10273729;28;20085;-58
2022/11/14 01:05:06;;;;;;;107.05;35.33;;;;;;;;;;10282569;28;20041;-59
2022/11/14 01:10:23;;;;;;;92.90;34.65;;;;;;;;;;10280918;28;20073;-59
2022/11/14 01:15:42;;;;;;;117.85;30.48;;;;;;;;;;10280540;28;20080;-58
2022/11/14 01:20:59;;;;;;;131.15;32.35;;;;;;;;;;10266980;28;20716;-58
2022/11/14 01:26:16;;;;;;;109.20;41.58;;;;;;;;;;10273847;28;20076;-58
2022/11/14 01:31:34;;;;;;;144.68;31.98;;;;;;;;;;10272769;28;20080;-59
2022/11/14 01:36:51;;;;;;;84.15;20.58;;;;;;;;;;10273356;28;20076;-59
2022/11/14 01:42:08;;;;;;;57.97;18.52;;;;;;;;;;10271318;28;20103;-57
2022/11/14 01:47:28;;;;;;;40.63;18.42;;;;;;;;;;10270937;28;20076;-58
2022/11/14 01:52:45;;;;;;;137.68;23.83;;;;;;;;;;10267892;28;20085;-58
2022/11/14 01:58:02;;;;;;;83.15;19.70;;;;;;;;;;10267671;28;20474;-58
2022/11/14 02:03:21;;;;;;;94.57;20.73;;;;;;;;;;10255387;28;20433;-59
2022/11/14 02:08:38;;;;;;;113.53;22.88;;;;;;;;;;10238156;28;20085;-58
2022/11/14 02:13:54;;;;;;;64.97;19.60;;;;;;;;;;10272205;28;20053;-58
2022/11/14 02:19:13;;;;;;;80.22;20.45;;;;;;;;;;10262917;28;20053;-58
2022/11/14 02:24:32;;;;;;;57.35;18.50;;;;;;;;;;10245573;28;20427;-58
2022/11/14 02:29:48;;;;;;;122.88;19.50;;;;;;;;;;10266884;28;20072;-58
2022/11/14 02:35:05;;;;;;;170.75;17.63;;;;;;;;;;10279599;28;20463;-59
2022/11/14 02:40:23;;;;;;;137.52;17.02;;;;;;;;;;10278135;28;20183;-58
2022/11/14 02:45:40;;;;;;;165.30;16.92;;;;;;;;;;10274786;28;20081;-58
2022/11/14 02:50:56;;;;;;;196.65;17.80;;;;;;;;;;10263977;28;20080;-58
2022/11/14 02:56:14;;;;;;;68.95;13.50;;;;;;;;;;10263956;28;20069;-59
2022/11/14 03:01:31;;;;;;;112.32;13.95;;;;;;;;;;10251438;28;20081;-57
2022/11/14 03:06:48;;;;;;;108.93;14.65;;;;;;;;;;10244351;28;20072;-58
2022/11/14 03:12:07;;;;;;;147.25;17.92;;;;;;;;;;10262437;28;20077;-59
2022/11/14 03:17:24;;;;;;;91.13;14.77;;;;;;;;;;10269229;28;20089;-59
2022/11/14 03:22:41;;;;;;;65.57;15.65;;;;;;;;;;10273517;28;20084;-58
2022/11/14 03:27:59;;;;;;;80.88;16.13;;;;;;;;;;10274232;28;20463;-58
2022/11/14 03:33:15;;;;;;;139.80;16.88;;;;;;;;;;10278071;28;20037;-59
2022/11/14 03:38:32;;;;;;;65.53;13.88;;;;;;;;;;10279342;28;20088;-58
2022/11/14 03:43:50;;;;;;;102.75;17.88;;;;;;;;;;10276158;28;20402;-58
2022/11/14 03:49:06;;;;;;;140.95;21.70;;;;;;;;;;10268642;28;20088;-59
2022/11/14 03:54:23;;;;;;;74.45;14.48;;;;;;;;;;10255028;28;20064;-58
2022/11/14 03:59:41;;;;;;;105.18;15.63;;;;;;;;;;10278261;28;20057;-58
2022/11/14 04:04:58;;;;;;;85.60;16.15;;;;;;;;;;10263202;28;20054;-59
2022/11/14 04:10:15;;;;;;;35.38;14.15;;;;;;;;;;10250295;28;20080;-58
2022/11/14 04:15:33;;;;;;;145.20;17.77;;;;;;;;;;10282040;28;20084;-58
2022/11/14 04:20:50;;;;;;;110.72;20.02;;;;;;;;;;10269629;28;20405;-59
2022/11/14 04:26:07;;;;;;;69.75;16.02;;;;;;;;;;10269224;28;20054;-59
2022/11/14 04:31:25;;;;;;;106.32;23.88;;;;;;;;;;10257901;28;20077;-59
2022/11/14 04:36:41;;;;;;;105.13;23.85;;;;;;;;;;10265182;28;20077;-58
2022/11/14 04:41:58;;;;;;;92.28;18.75;;;;;;;;;;10278850;28;20088;-58
2022/11/14 04:47:16;;;;;;;87.60;19.80;;;;;;;;;;10253295;28;20442;-58
2022/11/14 04:52:33;;;;;;;72.35;24.40;;;;;;;;;;10250065;28;20081;-59
2022/11/14 04:57:53;;;;;;;68.00;20.25;;;;;;;;;;10268749;28;20072;-59
2022/11/14 05:03:11;;;;;;;102.47;22.30;;;;;;;;;;10269639;28;20072;-58
2022/11/14 05:08:28;;;;;;;69.88;22.88;;;;;;;;;;10274050;28;20538;-58
2022/11/14 05:13:45;;;;;;;101.88;27.30;;;;;;;;;;10277781;28;20593;-59
2022/11/14 05:19:03;;;;;;;77.47;23.20;;;;;;;;;;10263351;28;20040;-58
2022/11/14 05:24:20;;;;;;;193.07;30.90;;;;;;;;;;10282165;28;20080;-58
2022/11/14 05:29:37;;;;;;;55.10;23.92;;;;;;;;;;10268083;28;20084;-59
2022/11/14 05:34:55;;;;;;;120.05;45.17;;;;;;;;;;10272632;28;20087;-60
2022/11/14 05:40:12;;;;;;;123.10;33.15;;;;;;;;;;10277120;28;20084;-59
2022/11/14 05:45:29;;;;;;;64.10;22.73;;;;;;;;;;10271237;28;20080;-59
2022/11/14 05:50:47;;;;;;;191.63;32.65;;;;;;;;;;10261968;28;20084;-58
2022/11/14 05:56:04;;;;;;;113.53;25.10;;;;;;;;;;10270204;28;20080;-59
2022/11/14 06:01:21;;;;;;;86.30;27.67;;;;;;;;;;10274504;28;20073;-59
2022/11/14 06:06:40;;;;;;;145.23;25.90;;;;;;;;;;10278135;28;20498;-59
2022/11/14 06:11:56;;;;;;;175.13;29.33;;;;;;;;;;10272363;28;20081;-59
2022/11/14 06:17:13;;;;;;;114.45;26.45;;;;;;;;;;10262738;28;20080;-59
2022/11/14 06:22:32;;;;;;;118.03;25.10;;;;;;;;;;10273089;28;20522;-58
2022/11/14 06:27:48;;;;;;;130.90;23.70;;;;;;;;;;10272821;28;20072;-59
2022/11/14 06:33:05;;;;;;;104.00;24.05;;;;;;;;;;10270228;28;20530;-59
2022/11/14 06:38:23;;;;;;;62.45;21.63;;;;;;;;;;10266527;28;20076;-59
2022/11/14 06:43:41;;;;;;;91.15;30.05;;;;;;;;;;10267053;28;20541;-57
2022/11/14 06:48:57;;;;;;;68.85;25.98;;;;;;;;;;10269716;28;20088;-57
2022/11/14 06:54:15;;;;;;;79.53;26.02;;;;;;;;;;10281573;28;20076;-59
2022/11/14 06:59:32;;;;;;;105.47;27.65;;;;;;;;;;10285111;28;20068;-60
2022/11/14 07:04:49;;;;;;;77.63;24.30;;;;;;;;;;10285362;28;20072;-59
2022/11/14 07:10:07;;;;;;;55.33;24.70;;;;;;;;;;10287792;28;20076;-59
2022/11/14 07:15:24;;;;;;;97.13;27.23;;;;;;;;;;10285376;28;20171;-58
2022/11/14 07:20:40;;;;;;;38.15;22.52;;;;;;;;;;10279011;28;20077;-57
2022/11/14 07:26:03;;;;;;;42.35;19.60;;;;;;;;;;10253720;28;20053;-59
2022/11/14 07:31:20;;;;;;;58.22;20.17;;;;;;;;;;10258253;28;20463;-59
2022/11/14 07:36:36;;;;;;;37.10;17.20;;;;;;;;;;10271318;28;20778;-58
2022/11/14 07:41:54;;;;;;;52.35;20.73;;;;;;;;;;10268544;28;20452;-60
2022/11/14 07:47:11;;;;;;;47.67;19.15;;;;;;;;;;10264673;28;20073;-60
2022/11/14 07:52:30;;;;;;;31.70;18.42;;;;;;;;;;10271668;28;20081;-59
2022/11/14 07:57:48;;;;;;;37.63;17.92;;;;;;;;;;10269544;28;20084;-57
2022/11/14 08:03:06;;;;;;;44.63;16.30;;;;;;;;;;10272317;28;20080;-58
2022/11/14 08:08:22;;;;;;;32.20;19.20;;;;;;;;;;10274303;28;20065;-59
2022/11/14 08:13:40;;;;;;;27.10;18.27;;;;;;;;;;10275229;28;20088;-55
2022/11/14 08:18:57;;;;;;;28.65;17.88;;;;;;;;;;10275613;28;20577;-59
2022/11/14 08:24:14;;;;;;;20.50;16.10;;;;;;;;;;10285897;28;20072;-59
2022/11/14 08:29:32;;;;;;;19.48;16.58;;;;;;;;;;10287553;28;20061;-59
2022/11/14 08:34:48;;;;;;;20.45;15.20;;;;;;;;;;10281549;28;20076;-59
2022/11/14 08:40:06;;;;;;;23.17;18.65;;;;;;;;;;10278619;28;20040;-60
2022/11/14 08:45:23;;;;;;;19.25;16.05;;;;;;;;;;10279555;28;20514;-59
2022/11/14 08:50:40;;;;;;;21.38;16.60;;;;;;;;;;10282918;28;20085;-59
2022/11/14 08:55:57;;;;;;;16.83;14.55;;;;;;;;;;10280125;28;20487;-59
2022/11/14 09:01:15;;;;;;;20.42;15.85;;;;;;;;;;10276344;28;20509;-60
2022/11/14 09:06:32;;;;;;;25.30;18.75;;;;;;;;;;10276669;28;20077;-59
2022/11/14 09:11:49;;;;;;;25.27;18.15;;;;;;;;;;10272953;28;20080;-57
2022/11/14 09:17:07;;;;;;;28.40;19.55;;;;;;;;;;10279341;28;20049;-58
2022/11/14 09:22:24;;;;;;;31.80;24.25;;;;;;;;;;10266590;28;20049;-55
2022/11/14 09:27:41;;;;;;;25.80;20.63;;;;;;;;;;10276900;28;20049;-59
2022/11/14 09:33:02;;;;;;;31.63;23.70;;;;;;;;;;10270272;28;20490;-58
2022/11/14 09:38:27;;;;;;;42.75;30.80;;;;;;;;;;10269880;28;20068;-59
2022/11/14 09:43:52;;;;;;;48.88;39.53;;;;;;;;;;10273156;28;20092;-58
2022/11/14 09:49:11;;;;;;;44.63;30.98;;;;;;;;;;10274890;28;20471;-58
2022/11/14 09:54:32;;;;;;;35.58;26.67;;;;;;;;;;10257325;28;20068;-58
2022/11/14 09:59:49;;;;;;;41.42;27.38;;;;;;;;;;10264743;28;20452;-56
2022/11/14 10:05:18;;;;;;;143.25;97.82;;;;;;;;;;10267291;28;20495;-57
2022/11/14 10:10:43;;;;;;;35.05;25.27;;;;;;;;;;10257688;28;20084;-58
2022/11/14 10:16:02;;;;;;;33.33;24.40;;;;;;;;;;10259558;28;20073;-58
2022/11/14 10:21:29;;;;;;;36.65;24.63;;;;;;;;;;10253560;28;20525;-59
2022/11/14 10:26:51;;;;;;;47.75;31.92;;;;;;;;;;10266487;28;20570;-58
2022/11/14 10:32:14;;;;;;;34.00;25.65;;;;;;;;;;10254477;28;20088;-58
2022/11/14 10:37:36;;;;;;;45.08;31.92;;;;;;;;;;10269708;28;20077;-59
2022/11/14 10:42:55;;;;;;;31.63;23.73;;;;;;;;;;10271460;28;20076;-59
2022/11/14 10:48:14;;;;;;;44.13;29.77;;;;;;;;;;10255710;28;20045;-58
2022/11/14 10:53:38;;;;;;;75.03;44.28;;;;;;;;;;10257628;28;20084;-59
2022/11/14 10:58:55;;;;;;;35.70;24.88;;;;;;;;;;10258564;28;20076;-60
2022/11/14 11:04:20;;;;;;;35.00;23.50;;;;;;;;;;10271452;28;20073;-64
2022/11/14 11:15:23;;;;;;;38.88;24.23;;;;;;;;;;10236490;28;20088;-59
2022/11/14 11:20:40;;;;;;;40.38;26.40;;;;;;;;;;10272436;28;20072;-59
2022/11/14 11:26:04;;;;;;;37.45;25.88;;;;;;;;;;10278206;28;20084;-60
2022/11/14 11:31:21;;;;;;;34.33;24.73;;;;;;;;;;10257242;28;20080;-60
2022/11/14 11:36:40;;;;;;;35.30;25.92;;;;;;;;;;10251383;28;20085;-59
2022/11/14 11:42:01;;;;;;;43.30;27.80;;;;;;;;;;10260180;28;20435;-59
2022/11/14 11:47:26;;;;;;;37.72;26.25;;;;;;;;;;10267060;28;20068;-59
2022/11/14 11:52:47;;;;;;;49.80;36.55;;;;;;;;;;10261896;28;20112;-59
2022/11/14 11:58:06;;;;;;;41.20;31.00;;;;;;;;;;10265157;28;20502;-58
2022/11/14 12:03:24;;;;;;;40.85;26.95;;;;;;;;;;10260242;28;20077;-59
2022/11/14 12:08:48;;;;;;;35.47;24.20;;;;;;;;;;10261940;28;20088;-60
2022/11/14 12:14:12;;;;;;;30.40;23.38;;;;;;;;;;10261059;28;20514;-58
2022/11/14 12:19:46;;;;;;;36.17;26.27;;;;;;;;;;10270365;28;20065;-58
2022/11/14 12:25:24;;;;;;;31.83;22.45;;;;;;;;;;10272111;28;20506;-59
2022/11/14 12:30:46;;;;;;;36.05;24.40;;;;;;;;;;10269926;28;20068;-58
2022/11/14 12:36:04;;;;;;;34.35;25.70;;;;;;;;;;10264918;28;20080;-59
2022/11/14 12:41:24;;;;;;;32.83;24.25;;;;;;;;;;10261803;28;20080;-59
2022/11/14 12:46:59;;;;;;;33.15;23.27;;;;;;;;;;10261893;28;20120;-59
2022/11/14 12:52:31;;;;;;;33.95;25.73;;;;;;;;;;10264345;28;20084;-59
2022/11/14 12:57:54;;;;;;;37.55;22.80;;;;;;;;;;10257037;28;20089;-59
2022/11/14 13:03:18;;;;;;;41.38;28.23;;;;;;;;;;10259194;28;20479;-59
2022/11/14 13:08:48;;;;;;;29.45;22.52;;;;;;;;;;10263257;28;21554;-60
2022/11/14 13:25:21;;;;;;;36.65;25.45;;;;;;;;;;10270185;28;20077;-59
2022/11/14 13:30:56;;;;;;;32.15;22.20;;;;;;;;;;10266791;28;20076;-60
2022/11/14 13:36:17;;;;;;;30.45;20.90;;;;;;;;;;10280756;28;20045;-59
2022/11/14 13:41:50;;;;;;;39.05;28.40;;;;;;;;;;10262828;28;20151;-59
2022/11/14 13:47:17;;;;;;;31.23;22.70;;;;;;;;;;10258571;28;20095;-59
2022/11/14 13:52:33;;;;;;;;;;;;;;;;;;10276134;28;20505;-59
2022/11/14 13:57:56;;;;;;;52.70;35.97;;;;;;;;;;10273142;28;19968;-59
2022/11/14 14:03:19;;;;;;;44.70;32.88;;;;;;;;;;10265634;28;20494;-60
2022/11/14 14:08:48;;;;;;;38.25;26.15;;;;;;;;;;10269649;28;20609;-60
2022/11/14 14:14:12;;;;;;;31.65;25.85;;;;;;;;;;10263551;28;20180;-59
2022/11/14 14:19:40;;;;;;;32.00;21.15;;;;;;;;;;10277012;28;20076;-60
2022/11/14 14:25:00;;;;;;;34.42;25.13;;;;;;;;;;10274309;28;20087;-59
2022/11/14 14:30:19;;;;;;;36.00;25.15;;;;;;;;;;10275449;28;20490;-59
2022/11/14 14:35:36;;;;;;;33.85;24.38;;;;;;;;;;10277079;28;20080;-59
2022/11/14 14:40:56;;;;;;;38.47;26.77;;;;;;;;;;10255322;28;20080;-60
2022/11/14 14:46:14;;;;;;;35.50;25.00;;;;;;;;;;10256799;28;20057;-60
2022/11/14 14:51:32;;;;;;;40.60;29.20;;;;;;;;;;10251287;28;20069;-58
2022/11/14 14:56:53;;;;;;;43.03;29.05;;;;;;;;;;10278001;28;20080;-58
2022/11/14 15:02:13;;;;;;;45.40;30.98;;;;;;;;;;10268471;28;20081;-59
2022/11/14 15:07:30;;;;;;;40.17;28.52;;;;;;;;;;10253406;28;20068;-59
2022/11/14 15:12:48;;;;;;;36.97;27.80;;;;;;;;;;10240739;28;20499;-61
2022/11/14 15:18:08;;;;;;;33.42;25.65;;;;;;;;;;10268492;28;20515;-58
2022/11/14 15:23:25;;;;;;;42.03;27.33;;;;;;;;;;10269798;28;20084;-59
2022/11/14 15:28:42;;;;;;;41.90;27.48;;;;;;;;;;10267063;28;20076;-59
2022/11/14 15:34:05;;;;;;;41.80;25.73;;;;;;;;;;10274713;28;20065;-58
2022/11/14 15:39:23;;;;;;;42.00;27.48;;;;;;;;;;10289809;28;20064;-60
2022/11/14 15:44:41;;;;;;;42.60;29.50;;;;;;;;;;10282396;28;20148;-59
2022/11/14 15:50:01;;;;;;;38.45;28.35;;;;;;;;;;10277551;28;20080;-59
2022/11/14 15:55:19;;;;;;;46.13;29.88;;;;;;;;;;10282728;28;20199;-59
2022/11/14 16:00:45;;;;;;;40.88;29.25;;;;;;;;;;10284853;28;20542;-59
2022/11/14 16:06:03;;;;;;;49.67;35.90;;;;;;;;;;10270684;28;20079;-59
2022/11/14 16:11:20;;;;;;;43.10;29.00;;;;;;;;;;10266819;28;20072;-58
2022/11/14 16:16:39;;;;;;;41.63;29.42;;;;;;;;;;10276638;28;20076;-59
2022/11/14 16:22:01;;;;;;;49.63;29.35;;;;;;;;;;10276437;28;20076;-58
2022/11/14 16:27:18;;;;;;;36.63;26.98;;;;;;;;;;10275692;28;20073;-60
2022/11/14 16:32:35;;;;;;;46.20;28.70;;;;;;;;;;10276788;28;20080;-59
2022/11/14 16:37:54;;;;;;;48.15;30.02;;;;;;;;;;10276849;28;20076;-57
2022/11/14 16:43:13;;;;;;;65.65;40.70;;;;;;;;;;10273091;28;20521;-58
2022/11/14 16:48:30;;;;;;;53.90;36.22;;;;;;;;;;10272511;28;20064;-58
2022/11/14 16:53:48;;;;;;;39.63;28.33;;;;;;;;;;10273609;28;20088;-59
2022/11/14 16:59:05;;;;;;;45.83;34.90;;;;;;;;;;10274026;28;20080;-59
2022/11/14 17:04:22;;;;;;;61.03;34.10;;;;;;;;;;10284811;28;20072;-59
2022/11/14 17:09:40;;;;;;;42.63;28.45;;;;;;;;;;10279871;28;20080;-59
2022/11/14 17:14:56;;;;;;;37.58;25.23;;;;;;;;;;10280892;28;20060;-58
2022/11/14 17:20:13;;;;;;;37.30;28.85;;;;;;;;;;10279678;28;20143;-59
2022/11/14 17:25:31;;;;;;;42.33;29.55;;;;;;;;;;10278656;28;20053;-58
2022/11/14 17:30:48;;;;;;;52.15;35.42;;;;;;;;;;10276220;28;20076;-60
2022/11/14 17:36:05;;;;;;;40.20;27.63;;;;;;;;;;10276455;28;20072;-58
2022/11/14 17:41:24;;;;;;;40.92;30.10;;;;;;;;;;10276821;28;20084;-58
2022/11/14 17:46:40;;;;;;;40.88;29.02;;;;;;;;;;10272803;28;20068;-58
2022/11/14 17:51:57;;;;;;;49.05;31.98;;;;;;;;;;10273384;28;20077;-60
2022/11/14 17:57:16;;;;;;;38.22;27.45;;;;;;;;;;10273337;28;20080;-60
2022/11/14 18:02:33;;;;;;;39.25;26.90;;;;;;;;;;10273438;28;20077;-59
2022/11/14 18:07:50;;;;;;;35.72;25.95;;;;;;;;;;10268880;28;20076;-59
2022/11/14 18:13:09;;;;;;;44.42;29.77;;;;;;;;;;10268706;28;20097;-58
2022/11/14 18:18:25;;;;;;;37.00;26.58;;;;;;;;;;10267058;28;20705;-59
2022/11/14 18:23:42;;;;;;;43.25;28.13;;;;;;;;;;10266230;28;20084;-59
2022/11/14 18:29:01;;;;;;;35.15;24.40;;;;;;;;;;10267721;28;20080;-58
2022/11/14 18:34:18;;;;;;;38.95;27.48;;;;;;;;;;10274661;28;20072;-59
2022/11/14 18:39:35;;;;;;;38.97;30.38;;;;;;;;;;10271516;28;20522;-58
2022/11/14 18:44:53;;;;;;;52.65;36.72;;;;;;;;;;10267655;28;20072;-60
2022/11/14 18:50:10;;;;;;;57.30;37.42;;;;;;;;;;10277825;28;20076;-58
2022/11/14 18:55:26;;;;;;;35.42;29.60;;;;;;;;;;10290590;28;20073;-58
2022/11/14 19:00:45;;;;;;;35.58;27.98;;;;;;;;;;10276001;28;20084;-59
2022/11/14 19:06:02;;;;;;;27.00;22.58;;;;;;;;;;10282708;28;20072;-58
2022/11/14 19:16:53;;;;;;;28.10;21.70;;;;;;;;;;10281438;28;20517;-58
2022/11/14 19:22:10;;;;;;;22.98;18.73;;;;;;;;;;10290414;28;20053;-58
2022/11/14 19:27:26;;;;;;;21.10;17.65;;;;;;;;;;10282867;28;20506;-59
2022/11/14 19:32:44;;;;;;;25.67;19.73;;;;;;;;;;10283129;28;20041;-59
2022/11/14 19:38:01;;;;;;;18.98;15.73;;;;;;;;;;10287819;28;20064;-59
2022/11/14 19:43:18;;;;;;;16.85;14.05;;;;;;;;;;10278874;28;20531;-59
2022/11/14 19:48:37;;;;;;;16.38;12.13;;;;;;;;;;10285895;28;20085;-59
2022/11/14 19:53:54;;;;;;;14.68;12.15;;;;;;;;;;10277718;28;20076;-59
2022/11/14 19:59:11;;;;;;;14.90;12.80;;;;;;;;;;10293915;28;20471;-57
2022/11/14 20:04:34;;;;;;;20.38;15.40;;;;;;;;;;10281737;28;20072;-58
2022/11/14 20:09:53;;;;;;;20.08;14.52;;;;;;;;;;10280658;28;20132;-60
2022/11/14 20:15:10;;;;;;;15.40;12.20;;;;;;;;;;10286586;28;20518;-59
2022/11/14 20:20:28;;;;;;;14.50;10.93;;;;;;;;;;10282158;28;20357;-59
2022/11/14 20:25:50;;;;;;;14.88;11.52;;;;;;;;;;10281546;28;20076;-60
2022/11/14 20:31:08;;;;;;;14.02;10.35;;;;;;;;;;10281552;28;20501;-60
2022/11/14 20:36:27;;;;;;;13.52;11.32;;;;;;;;;;10275541;28;20072;-58
2022/11/14 20:41:59;;;;;;;16.85;11.23;;;;;;;;;;10279825;28;20080;-58
2022/11/14 20:47:17;;;;;;;11.02;9.43;;;;;;;;;;10272710;28;20490;-59
2022/11/14 20:52:37;;;;;;;12.63;10.07;;;;;;;;;;10273220;28;20073;-59
2022/11/14 20:57:53;;;;;;;17.17;15.45;;;;;;;;;;10268631;28;20076;-59
2022/11/14 21:03:10;;;;;;;14.32;12.82;;;;;;;;;;10275697;28;20479;-59
2022/11/14 21:08:28;;;;;;;14.25;11.98;;;;;;;;;;10274745;28;20076;-59
2022/11/14 21:13:58;;;;;;;22.98;18.20;;;;;;;;;;10275506;28;20084;-59
2022/11/14 21:19:15;;;;;;;17.98;13.55;;;;;;;;;;10280693;28;20049;-59
2022/11/14 21:24:33;;;;;;;13.20;11.80;;;;;;;;;;10281759;28;20053;-59
2022/11/14 21:29:55;;;;;;;14.35;11.70;;;;;;;;;;10278154;28;20475;-59
2022/11/14 21:35:11;;;;;;;13.38;11.50;;;;;;;;;;10279615;28;20084;-58
2022/11/14 21:40:29;;;;;;;12.50;11.13;;;;;;;;;;10277041;28;20061;-59
2022/11/14 21:45:53;;;;;;;10.88;9.25;;;;;;;;;;10257517;28;20076;-59
2022/11/14 21:51:11;;;;;;;11.35;10.15;;;;;;;;;;10272824;28;20076;-59
2022/11/14 21:56:30;;;;;;;16.80;11.07;;;;;;;;;;10274311;28;20502;-59
2022/11/14 22:07:22;;;;;;;13.65;11.30;;;;;;;;;;10275333;28;20084;-58
2022/11/14 22:12:40;;;;;;;14.85;10.52;;;;;;;;;;10248032;28;20084;-58
2022/11/14 22:17:57;;;;;;;12.57;8.90;;;;;;;;;;10239464;28;20089;-58
2022/11/14 22:23:15;;;;;;;15.65;12.02;;;;;;;;;;10249232;28;20077;-59
2022/11/14 22:28:33;;;;;;;14.55;9.52;;;;;;;;;;10270156;28;20057;-59
2022/11/14 22:33:50;;;;;;;20.10;12.27;;;;;;;;;;10252145;28;20081;-59
2022/11/14 22:39:07;;;;;;;12.38;10.68;;;;;;;;;;10246062;28;20080;-60
2022/11/14 22:44:25;;;;;;;15.48;11.35;;;;;;;;;;10260007;28;20068;-59
2022/11/14 22:49:42;;;;;;;14.55;11.57;;;;;;;;;;10271246;28;20053;-59
2022/11/14 22:54:59;;;;;;;11.23;10.05;;;;;;;;;;10277676;28;20077;-59
2022/11/14 23:00:17;;;;;;;18.00;13.93;;;;;;;;;;10277818;28;20053;-60
2022/11/14 23:05:35;;;;;;;16.42;12.18;;;;;;;;;;10279854;28;20065;-59
2022/11/14 23:10:51;;;;;;;13.32;10.35;;;;;;;;;;10263992;28;20080;-58
2022/11/14 23:16:10;;;;;;;9.50;8.50;;;;;;;;;;10254510;28;20726;-59
2022/11/14 23:21:28;;;;;;;11.52;9.38;;;;;;;;;;10247484;28;20076;-59
2022/11/14 23:26:45;;;;;;;18.52;11.77;;;;;;;;;;10256371;28;20064;-58
2022/11/14 23:32:03;;;;;;;34.85;19.52;;;;;;;;;;10266213;28;20678;-58
2022/11/14 23:37:20;;;;;;;32.50;17.85;;;;;;;;;;10266015;28;20498;-59
2022/11/14 23:42:37;;;;;;;13.38;10.35;;;;;;;;;;10274596;28;20088;-59
2022/11/14 23:47:55;;;;;;;17.25;10.77;;;;;;;;;;10270267;28;20527;-59
2022/11/14 23:53:12;;;;;;;10.43;9.25;;;;;;;;;;10278049;28;20080;-59
2022/11/14 23:58:29;;;;;;;15.65;9.38;;;;;;;;;;10272475;28;20076;-57
